createdAt,value
2022-08-30T00:01:03.215Z,16.80
2022-08-30T00:03:07.081Z,16.70
2022-08-30T00:05:09.514Z,16.70
2022-08-30T00:07:11.393Z,16.70
2022-08-30T00:09:13.185Z,16.70
2022-08-30T00:11:22.829Z,16.70
2022-08-30T00:13:25.039Z,16.70
2022-08-30T00:15:27.538Z,16.70
2022-08-30T00:17:29.354Z,16.70
2022-08-30T00:19:31.398Z,16.70
2022-08-30T00:21:33.226Z,16.70
2022-08-30T00:23:35.394Z,16.60
2022-08-30T00:25:37.176Z,16.60
2022-08-30T00:27:39.366Z,16.60
2022-08-30T00:29:41.418Z,16.60
2022-08-30T00:31:43.239Z,16.50
2022-08-30T00:33:45.013Z,16.50
2022-08-30T00:35:46.760Z,16.50
2022-08-30T00:37:50.032Z,16.50
2022-08-30T00:39:51.898Z,16.50
2022-08-30T00:41:53.719Z,16.40
2022-08-30T00:43:55.526Z,16.40
2022-08-30T00:45:58.045Z,16.40
2022-08-30T00:48:01.016Z,16.40
2022-08-30T00:50:03.642Z,16.40
2022-08-30T00:52:07.472Z,16.30
2022-08-30T00:54:09.742Z,16.40
2022-08-30T00:56:13.795Z,16.30
2022-08-30T00:58:21.830Z,16.30
2022-08-30T01:00:24.073Z,16.30
2022-08-30T01:02:30.777Z,16.30
2022-08-30T01:04:33.920Z,16.30
2022-08-30T01:06:36.618Z,16.30
2022-08-30T01:08:39.262Z,16.30
2022-08-30T01:10:41.594Z,16.30
2022-08-30T01:12:45.093Z,16.30
2022-08-30T01:14:47.644Z,16.20
2022-08-30T01:16:51.101Z,16.20
2022-08-30T01:18:56.351Z,16.20
2022-08-30T01:21:27.530Z,16.20
2022-08-30T01:23:30.225Z,16.20
2022-08-30T01:25:34.661Z,16.10
2022-08-30T01:27:39.885Z,16.10
2022-08-30T01:29:45.026Z,16.10
2022-08-30T01:31:46.949Z,16.00
2022-08-30T01:33:48.803Z,16.10
2022-08-30T01:35:59.617Z,16.00
2022-08-30T01:38:02.046Z,16.00
2022-08-30T01:40:05.088Z,16.00
2022-08-30T01:42:07.024Z,16.00
2022-08-30T01:44:10.956Z,16.00
2022-08-30T01:46:14.768Z,15.90
2022-08-30T01:48:16.624Z,15.90
2022-08-30T01:50:18.436Z,15.90
2022-08-30T01:52:20.715Z,15.90
2022-08-30T01:54:22.515Z,15.90
2022-08-30T01:56:31.113Z,15.90
2022-08-30T01:58:33.765Z,15.90
2022-08-30T02:00:35.566Z,15.90
2022-08-30T02:02:37.464Z,15.80
2022-08-30T02:04:39.370Z,15.80
2022-08-30T02:06:41.542Z,15.80
2022-08-30T02:08:44.324Z,15.80
2022-08-30T02:10:45.968Z,15.80
2022-08-30T02:12:47.789Z,15.70
2022-08-30T02:14:49.619Z,15.70
2022-08-30T02:16:51.522Z,15.70
2022-08-30T02:18:54.596Z,15.70
2022-08-30T02:20:56.401Z,15.70
2022-08-30T02:23:01.223Z,15.70
2022-08-30T02:25:09.821Z,15.70
2022-08-30T02:27:22.722Z,15.70
2022-08-30T02:29:25.191Z,15.70
2022-08-30T02:31:26.990Z,15.70
2022-08-30T02:33:29.184Z,15.70
2022-08-30T02:35:31.358Z,15.60
2022-08-30T02:37:33.208Z,15.60
2022-08-30T02:39:35.001Z,15.60
2022-08-30T02:41:38.258Z,15.60
2022-08-30T02:43:40.099Z,15.50
2022-08-30T02:45:42.552Z,15.60
2022-08-30T02:47:46.925Z,15.50
2022-08-30T02:49:49.015Z,15.60
2022-08-30T02:51:51.228Z,15.50
2022-08-30T02:53:53.259Z,15.50
2022-08-30T02:55:55.486Z,15.50
2022-08-30T02:57:59.963Z,15.50
2022-08-30T03:00:01.878Z,15.50
2022-08-30T03:02:03.781Z,15.50
2022-08-30T03:04:06.236Z,15.50
2022-08-30T03:06:08.417Z,15.50
2022-08-30T03:08:11.420Z,15.50
2022-08-30T03:10:14.725Z,15.50
2022-08-30T03:12:16.537Z,15.50
2022-08-30T03:14:18.315Z,15.50
2022-08-30T03:16:22.629Z,15.50
2022-08-30T03:18:25.120Z,15.50
2022-08-30T03:20:27.024Z,15.50
2022-08-30T03:22:29.741Z,15.50
2022-08-30T03:24:31.658Z,15.40
2022-08-30T03:26:33.697Z,15.40
2022-08-30T03:28:35.473Z,15.30
2022-08-30T03:30:37.515Z,15.30
2022-08-30T03:32:40.638Z,15.30
2022-08-30T03:34:45.335Z,15.30
2022-08-30T03:36:48.711Z,15.30
2022-08-30T03:38:50.544Z,15.30
2022-08-30T03:40:52.328Z,15.30
2022-08-30T03:42:54.137Z,15.30
2022-08-30T03:44:56.335Z,15.30
2022-08-30T03:46:58.125Z,15.30
2022-08-30T03:48:59.937Z,15.20
2022-08-30T03:51:01.693Z,15.20
2022-08-30T03:53:03.597Z,15.20
2022-08-30T03:55:06.123Z,15.20
2022-08-30T03:57:07.973Z,15.20
2022-08-30T03:59:15.787Z,15.10
2022-08-30T04:01:17.738Z,15.10
2022-08-30T04:03:25.715Z,15.10
2022-08-30T04:05:27.695Z,15.10
2022-08-30T04:07:29.503Z,15.10
2022-08-30T04:09:31.451Z,15.10
2022-08-30T04:11:33.726Z,15.10
2022-08-30T04:13:35.525Z,15.10
2022-08-30T04:15:37.296Z,15.00
2022-08-30T04:17:39.122Z,15.00
2022-08-30T04:19:40.929Z,15.00
2022-08-30T04:21:43.069Z,15.00
2022-08-30T04:23:46.849Z,15.00
2022-08-30T04:25:48.930Z,15.00
2022-08-30T04:27:50.833Z,15.00
2022-08-30T04:29:54.107Z,15.00
2022-08-30T04:31:58.259Z,15.00
2022-08-30T04:34:00.136Z,14.90
2022-08-30T04:36:04.902Z,14.90
2022-08-30T04:38:06.699Z,14.90
2022-08-30T04:40:09.496Z,14.90
2022-08-30T04:42:11.608Z,14.90
2022-08-30T04:44:15.838Z,14.90
2022-08-30T04:46:21.575Z,14.90
2022-08-30T04:48:23.682Z,14.90
2022-08-30T04:50:26.154Z,14.90
2022-08-30T04:52:29.146Z,14.90
2022-08-30T04:54:30.996Z,14.90
2022-08-30T04:56:33.569Z,14.90
2022-08-30T04:58:35.425Z,14.90
2022-08-30T05:00:37.518Z,14.90
2022-08-30T05:02:41.162Z,14.90
2022-08-30T05:05:03.061Z,14.90
2022-08-30T05:07:04.908Z,14.90
2022-08-30T05:09:06.790Z,14.90
2022-08-30T05:11:09.486Z,15.00
2022-08-30T05:13:11.730Z,15.00
2022-08-30T05:15:13.706Z,15.00
2022-08-30T05:17:15.685Z,15.10
2022-08-30T05:19:17.464Z,15.00
2022-08-30T05:21:23.080Z,15.00
2022-08-30T05:23:24.856Z,15.10
2022-08-30T05:25:32.488Z,15.10
2022-08-30T05:27:34.458Z,15.20
2022-08-30T05:29:39.402Z,15.20
2022-08-30T05:31:41.309Z,15.20
2022-08-30T05:33:44.078Z,15.20
2022-08-30T05:35:45.793Z,15.30
2022-08-30T05:37:48.071Z,15.30
2022-08-30T05:39:51.165Z,15.30
2022-08-30T05:41:59.595Z,15.30
2022-08-30T05:44:03.241Z,15.40
2022-08-30T05:46:11.728Z,15.40
2022-08-30T05:48:13.743Z,15.50
2022-08-30T05:50:15.831Z,15.50
2022-08-30T05:52:18.309Z,15.60
2022-08-30T05:54:20.137Z,15.60
2022-08-30T05:56:25.972Z,15.60
2022-08-30T05:58:28.052Z,15.70
2022-08-30T06:00:31.053Z,15.70
2022-08-30T06:02:33.186Z,15.80
2022-08-30T06:04:36.793Z,15.80
2022-08-30T06:06:40.616Z,15.90
2022-08-30T06:08:45.615Z,15.90
2022-08-30T06:10:47.493Z,15.90
2022-08-30T06:12:50.030Z,16.00
2022-08-30T06:14:51.837Z,16.10
2022-08-30T06:16:55.515Z,16.10
2022-08-30T06:18:58.737Z,16.10
2022-08-30T06:21:00.600Z,16.20
2022-08-30T06:23:02.489Z,16.30
2022-08-30T06:25:04.808Z,16.30
2022-08-30T06:27:06.729Z,16.40
2022-08-30T06:29:11.131Z,16.40
2022-08-30T06:31:15.089Z,16.50
2022-08-30T06:33:16.974Z,16.60
2022-08-30T06:35:18.841Z,16.60
2022-08-30T06:37:24.641Z,16.70
2022-08-30T06:39:31.980Z,16.80
2022-08-30T06:41:37.303Z,16.80
2022-08-30T06:43:39.382Z,16.90
2022-08-30T06:45:41.471Z,16.90
2022-08-30T06:47:44.952Z,17.00
2022-08-30T06:49:46.838Z,17.10
2022-08-30T06:51:48.723Z,17.20
2022-08-30T06:53:50.587Z,17.20
2022-08-30T06:56:04.786Z,17.30
2022-08-30T06:58:06.587Z,17.40
2022-08-30T07:00:10.395Z,17.40
2022-08-30T07:02:12.394Z,17.50
2022-08-30T07:04:14.237Z,17.60
2022-08-30T07:06:16.271Z,17.70
2022-08-30T07:08:23.045Z,17.80
2022-08-30T07:10:24.892Z,17.80
2022-08-30T07:12:26.730Z,17.90
2022-08-30T07:14:28.533Z,18.00
2022-08-30T07:16:30.954Z,18.10
2022-08-30T07:18:51.172Z,18.20
2022-08-30T07:20:53.023Z,18.30
2022-08-30T07:22:55.770Z,18.40
2022-08-30T07:24:57.442Z,18.50
2022-08-30T07:26:59.209Z,18.50
2022-08-30T07:29:01.898Z,18.60
2022-08-30T07:31:04.429Z,18.70
2022-08-30T07:33:07.145Z,18.80
2022-08-30T07:35:08.860Z,18.90
2022-08-30T07:37:10.709Z,19.00
2022-08-30T07:39:20.778Z,19.00
2022-08-30T07:41:32.229Z,19.10
2022-08-30T07:43:35.126Z,19.30
2022-08-30T07:45:38.178Z,19.30
2022-08-30T07:47:40.147Z,19.50
2022-08-30T07:49:41.970Z,19.50
2022-08-30T07:51:44.390Z,19.70
2022-08-30T07:53:46.892Z,19.70
2022-08-30T07:55:48.718Z,19.80
2022-08-30T07:57:50.906Z,19.90
2022-08-30T07:59:53.153Z,19.90
2022-08-30T08:01:55.005Z,20.00
2022-08-30T08:03:58.045Z,20.10
2022-08-30T08:06:03.027Z,20.10
2022-08-30T08:08:05.744Z,20.20
2022-08-30T08:10:07.676Z,20.30
2022-08-30T08:12:09.875Z,20.30
2022-08-30T08:14:11.859Z,20.40
2022-08-30T08:16:13.877Z,20.50
2022-08-30T08:18:19.192Z,20.50
2022-08-30T08:20:21.093Z,20.60
2022-08-30T08:22:23.141Z,20.70
2022-08-30T08:24:24.931Z,20.80
2022-08-30T08:26:27.049Z,20.90
2022-08-30T08:28:28.931Z,21.00
2022-08-30T08:30:35.003Z,21.00
2022-08-30T08:32:36.794Z,21.10
2022-08-30T08:34:38.574Z,21.20
2022-08-30T08:36:40.435Z,21.30
2022-08-30T08:38:42.400Z,21.40
2022-08-30T08:40:47.053Z,21.40
2022-08-30T08:42:49.124Z,21.50
2022-08-30T08:45:11.510Z,21.50
2022-08-30T08:47:33.758Z,21.60
2022-08-30T08:49:37.999Z,21.80
2022-08-30T08:51:59.127Z,21.80
2022-08-30T08:54:19.411Z,21.80
2022-08-30T08:56:24.348Z,22.00
2022-08-30T08:58:28.884Z,22.00
2022-08-30T09:00:32.323Z,22.10
2022-08-30T09:02:44.203Z,22.20
2022-08-30T09:04:46.251Z,22.20
2022-08-30T09:07:00.627Z,22.30
2022-08-30T09:09:02.502Z,22.40
2022-08-30T09:11:11.260Z,22.40
2022-08-30T09:13:13.867Z,22.50
2022-08-30T09:15:20.931Z,22.50
2022-08-30T09:17:23.331Z,22.60
2022-08-30T09:19:30.583Z,22.60
2022-08-30T09:21:36.694Z,22.70
2022-08-30T09:23:49.812Z,22.80
2022-08-30T09:25:59.325Z,22.80
2022-08-30T09:28:13.602Z,22.90
2022-08-30T09:30:27.267Z,23.00
2022-08-30T09:32:39.636Z,23.00
2022-08-30T09:34:43.639Z,23.10
2022-08-30T09:36:52.055Z,23.10
2022-08-30T09:39:01.533Z,23.20
2022-08-30T09:41:42.948Z,23.30
2022-08-30T09:43:44.818Z,23.30
2022-08-30T09:45:49.790Z,23.40
2022-08-30T09:47:51.761Z,23.40
2022-08-30T09:50:24.105Z,23.50
2022-08-30T09:52:56.902Z,23.50
2022-08-30T09:55:32.553Z,23.60
2022-08-30T09:57:46.316Z,23.70
2022-08-30T10:00:02.046Z,23.70
2022-08-30T10:02:20.130Z,23.80
2022-08-30T10:04:37.471Z,23.90
2022-08-30T10:06:51.224Z,23.90
2022-08-30T10:08:58.969Z,24.00
2022-08-30T10:11:14.611Z,24.10
2022-08-30T10:13:54.059Z,24.10
2022-08-30T10:22:33.620Z,24.20
2022-08-30T10:24:43.990Z,24.20
2022-08-30T10:27:10.809Z,24.30
2022-08-30T10:29:23.680Z,24.30
2022-08-30T10:31:37.084Z,24.50
2022-08-30T10:33:45.259Z,24.50
2022-08-30T10:35:53.069Z,24.60
2022-08-30T10:38:11.971Z,24.60
2022-08-30T10:41:01.036Z,24.70
2022-08-30T10:43:09.740Z,24.70
2022-08-30T10:45:15.294Z,24.80
2022-08-30T10:47:44.988Z,24.80
2022-08-30T10:49:49.470Z,24.90
2022-08-30T10:52:00.420Z,24.90
2022-08-30T10:54:20.985Z,25.00
2022-08-30T10:56:26.950Z,25.00
2022-08-30T10:58:31.358Z,25.00
2022-08-30T11:00:46.558Z,25.10
2022-08-30T11:03:06.335Z,25.10
2022-08-30T11:05:40.708Z,25.10
2022-08-30T11:08:02.344Z,25.10
2022-08-30T11:10:22.407Z,25.20
2022-08-30T11:12:41.634Z,25.20
2022-08-30T11:14:46.086Z,25.20
2022-08-30T11:16:51.101Z,25.20
2022-08-30T11:18:56.381Z,25.20
2022-08-30T11:21:23.790Z,25.20
2022-08-30T11:23:34.920Z,25.30
2022-08-30T11:25:57.664Z,25.30
2022-08-30T11:28:00.037Z,25.40
2022-08-30T11:30:24.465Z,25.40
2022-08-30T11:35:49.843Z,25.50
2022-08-30T11:37:51.625Z,25.60
2022-08-30T11:39:55.220Z,25.60
2022-08-30T11:42:24.455Z,25.60
2022-08-30T11:44:32.874Z,25.60
2022-08-30T11:46:40.473Z,25.60
2022-08-30T11:48:54.634Z,25.70
2022-08-30T11:51:08.673Z,25.70
2022-08-30T11:53:32.297Z,25.80
2022-08-30T11:55:58.531Z,25.80
2022-08-30T11:58:15.250Z,25.90
2022-08-30T12:00:35.068Z,25.90
2022-08-30T12:02:40.280Z,25.90
2022-08-30T12:04:47.400Z,26.00
2022-08-30T12:06:52.073Z,26.00
2022-08-30T12:08:57.900Z,26.10
2022-08-30T12:11:12.058Z,26.20
2022-08-30T12:13:37.026Z,26.20
2022-08-30T12:15:56.207Z,26.30
2022-08-30T12:18:18.692Z,26.30
2022-08-30T12:20:30.807Z,26.30
2022-08-30T12:22:37.759Z,26.40
2022-08-30T12:24:43.765Z,26.40
2022-08-30T12:26:48.599Z,26.30
2022-08-30T12:28:53.703Z,26.30
2022-08-30T12:30:55.524Z,26.20
2022-08-30T12:32:58.750Z,26.20
2022-08-30T12:35:04.032Z,26.20
2022-08-30T12:37:05.808Z,26.30
2022-08-30T12:39:22.769Z,26.30
2022-08-30T12:41:24.590Z,26.30
2022-08-30T12:43:47.375Z,26.30
2022-08-30T12:45:51.348Z,26.20
2022-08-30T12:48:15.710Z,26.20
2022-08-30T12:50:22.424Z,26.20
2022-08-30T12:52:28.754Z,26.20
2022-08-30T12:54:31.187Z,26.30
2022-08-30T12:57:32.099Z,26.40
2022-08-30T12:59:40.141Z,26.60
2022-08-30T13:01:41.975Z,26.70
2022-08-30T13:04:24.329Z,26.80
2022-08-30T13:06:54.693Z,26.90
2022-08-30T13:08:57.585Z,27.00
2022-08-30T13:11:07.912Z,27.10
2022-08-30T13:13:10.440Z,27.20
2022-08-30T13:15:19.007Z,27.30
2022-08-30T13:17:27.476Z,27.40
2022-08-30T13:19:35.602Z,27.60
2022-08-30T13:21:51.330Z,27.70
2022-08-30T13:23:58.236Z,27.80
2022-08-30T13:26:01.587Z,27.80
2022-08-30T13:28:04.454Z,27.90
2022-08-30T13:30:16.210Z,27.90
2022-08-30T13:32:18.228Z,28.00
2022-08-30T13:34:22.574Z,28.10
2022-08-30T13:36:37.822Z,28.20
2022-08-30T13:38:40.181Z,28.30
2022-08-30T13:40:44.969Z,28.30
2022-08-30T13:42:47.464Z,28.30
2022-08-30T13:44:49.236Z,28.30
2022-08-30T13:46:55.261Z,28.30
2022-08-30T13:49:43.154Z,28.30
2022-08-30T13:51:28.962Z,28.30
2022-08-30T13:54:00.670Z,28.40
2022-08-30T13:55:52.646Z,28.40
2022-08-30T13:57:55.365Z,28.50
2022-08-30T13:59:58.195Z,28.50
2022-08-30T14:02:08.833Z,28.50
2022-08-30T14:04:13.723Z,28.50
2022-08-30T14:06:32.722Z,28.50
2022-08-30T14:08:45.565Z,28.50
2022-08-30T14:10:48.128Z,28.50
2022-08-30T14:12:53.491Z,28.40
2022-08-30T14:14:59.473Z,28.40
2022-08-30T14:17:01.775Z,28.50
2022-08-30T14:19:04.397Z,28.50
2022-08-30T14:21:07.618Z,28.50
2022-08-30T14:23:10.056Z,28.40
2022-08-30T14:25:12.357Z,28.50
2022-08-30T14:27:14.600Z,28.50
2022-08-30T14:29:26.336Z,28.60
2022-08-30T14:31:32.670Z,28.80
2022-08-30T14:33:35.247Z,28.90
2022-08-30T14:35:37.389Z,29.20
2022-08-30T14:37:40.902Z,29.40
2022-08-30T14:39:42.712Z,29.40
2022-08-30T14:41:50.879Z,29.50
2022-08-30T14:43:52.828Z,29.60
2022-08-30T14:45:54.721Z,29.70
2022-08-30T14:47:57.585Z,29.80
2022-08-30T14:50:01.853Z,30.00
2022-08-30T14:52:03.834Z,30.00
2022-08-30T14:54:05.623Z,30.10
2022-08-30T14:56:13.132Z,30.20
2022-08-30T14:58:18.092Z,30.30
2022-08-30T15:00:20.257Z,30.40
2022-08-30T15:02:25.299Z,30.50
2022-08-30T15:04:30.129Z,30.60
2022-08-30T15:06:33.579Z,30.60
2022-08-30T15:08:36.095Z,30.60
2022-08-30T15:10:40.705Z,30.60
2022-08-30T15:12:48.038Z,30.70
2022-08-30T15:14:49.823Z,30.70
2022-08-30T15:16:54.545Z,30.80
2022-08-30T15:18:58.022Z,30.90
2022-08-30T15:20:59.811Z,30.90
2022-08-30T15:23:01.669Z,30.90
2022-08-30T15:25:04.376Z,31.00
2022-08-30T15:27:06.710Z,31.20
2022-08-30T15:29:10.375Z,31.10
2022-08-30T15:31:12.460Z,31.20
2022-08-30T15:33:14.260Z,31.30
2022-08-30T15:35:16.794Z,31.40
2022-08-30T15:37:22.445Z,31.40
2022-08-30T15:39:24.610Z,31.40
2022-08-30T15:41:28.172Z,31.50
2022-08-30T15:43:30.580Z,31.50
2022-08-30T15:45:33.309Z,31.50
2022-08-30T15:47:35.632Z,31.50
2022-08-30T15:49:37.811Z,31.50
2022-08-30T15:51:41.481Z,31.50
2022-08-30T15:53:45.740Z,31.60
2022-08-30T15:55:48.240Z,31.70
2022-08-30T15:57:52.777Z,31.70
2022-08-30T15:59:54.666Z,31.80
2022-08-30T16:01:57.362Z,31.90
2022-08-30T16:04:00.186Z,32.00
2022-08-30T16:06:02.651Z,32.00
2022-08-30T16:08:04.348Z,32.00
2022-08-30T16:10:06.686Z,32.00
2022-08-30T16:12:09.925Z,32.00
2022-08-30T16:14:11.937Z,32.10
2022-08-30T16:16:13.818Z,32.20
2022-08-30T16:18:16.224Z,32.10
2022-08-30T16:20:18.078Z,31.90
2022-08-30T16:22:22.412Z,31.80
2022-08-30T16:24:25.909Z,31.80
2022-08-30T16:26:29.331Z,31.50
2022-08-30T16:28:31.470Z,31.40
2022-08-30T16:30:33.486Z,31.20
2022-08-30T16:32:35.418Z,30.90
2022-08-30T16:34:37.281Z,30.60
2022-08-30T16:36:40.098Z,30.30
2022-08-30T16:38:42.036Z,30.10
2022-08-30T16:40:43.912Z,29.90
2022-08-30T16:42:45.872Z,29.80
2022-08-30T16:44:48.354Z,29.60
2022-08-30T16:46:53.400Z,29.50
2022-08-30T16:48:58.289Z,29.40
2022-08-30T16:51:00.975Z,29.20
2022-08-30T16:53:02.873Z,29.00
2022-08-30T16:55:05.146Z,28.90
2022-08-30T16:57:07.153Z,28.70
2022-08-30T16:59:11.523Z,28.60
2022-08-30T17:01:14.656Z,28.30
2022-08-30T17:03:19.133Z,28.20
2022-08-30T17:05:23.708Z,28.00
2022-08-30T17:07:25.452Z,27.80
2022-08-30T17:09:31.124Z,27.60
2022-08-30T17:11:34.681Z,27.40
2022-08-30T17:13:37.428Z,27.30
2022-08-30T17:15:39.300Z,27.20
2022-08-30T17:20:06.621Z,26.90
2022-08-30T17:22:13.462Z,26.80
2022-08-30T17:24:15.256Z,26.60
2022-08-30T17:26:17.816Z,26.50
2022-08-30T17:28:19.843Z,26.40
2022-08-30T17:30:24.137Z,26.30
2022-08-30T17:32:26.135Z,26.20
2022-08-30T17:34:28.146Z,26.00
2022-08-30T17:36:29.954Z,25.90
2022-08-30T17:38:31.767Z,25.70
2022-08-30T17:40:33.708Z,25.60
2022-08-30T17:42:35.628Z,25.50
2022-08-30T17:44:38.033Z,25.40
2022-08-30T17:46:44.247Z,25.20
2022-08-30T17:48:46.450Z,25.10
2022-08-30T17:50:56.022Z,25.00
2022-08-30T17:52:58.414Z,24.90
2022-08-30T17:55:01.020Z,24.70
2022-08-30T17:57:10.688Z,24.60
2022-08-30T17:59:15.850Z,24.50
2022-08-30T18:01:18.978Z,24.40
2022-08-30T18:03:22.959Z,24.30
2022-08-30T18:05:25.329Z,24.20
2022-08-30T18:07:27.390Z,24.10
2022-08-30T18:09:33.689Z,24.00
2022-08-30T18:11:41.926Z,23.90
2022-08-30T18:13:43.730Z,23.80
2022-08-30T18:15:45.537Z,23.70
2022-08-30T18:17:52.630Z,23.60
2022-08-30T18:19:54.425Z,23.40
2022-08-30T18:21:58.655Z,23.30
2022-08-30T18:24:00.610Z,23.20
2022-08-30T18:26:02.849Z,23.10
2022-08-30T18:28:05.387Z,22.90
2022-08-30T18:30:11.779Z,22.90
2022-08-30T18:32:13.858Z,22.80
2022-08-30T18:34:15.681Z,22.70
2022-08-30T18:36:17.732Z,22.60
2022-08-30T18:38:23.836Z,22.50
2022-08-30T18:40:25.766Z,22.50
2022-08-30T18:42:28.106Z,22.40
2022-08-30T18:44:33.375Z,22.30
2022-08-30T18:46:35.601Z,22.20
2022-08-30T18:48:38.617Z,22.10
2022-08-30T18:50:43.822Z,22.00
2022-08-30T18:52:45.797Z,22.00
2022-08-30T18:54:52.494Z,21.90
2022-08-30T18:56:54.942Z,21.90
2022-08-30T18:58:56.704Z,21.80
2022-08-30T19:00:58.549Z,21.70
2022-08-30T19:03:00.514Z,21.70
2022-08-30T19:05:02.317Z,21.60
2022-08-30T19:07:07.747Z,21.50
2022-08-30T19:09:10.230Z,21.50
2022-08-30T19:11:12.092Z,21.40
2022-08-30T19:13:14.002Z,21.40
2022-08-30T19:15:16.153Z,21.30
2022-08-30T19:17:19.691Z,21.30
2022-08-30T19:19:22.068Z,21.20
2022-08-30T19:21:23.884Z,21.20
2022-08-30T19:23:27.826Z,21.10
2022-08-30T19:25:35.858Z,21.10
2022-08-30T19:27:40.050Z,21.10
2022-08-30T19:29:42.465Z,21.00
2022-08-30T19:31:46.549Z,20.90
2022-08-30T19:33:48.467Z,20.90
2022-08-30T19:35:51.634Z,20.80
2022-08-30T19:37:53.641Z,20.80
2022-08-30T19:39:55.847Z,20.70
2022-08-30T19:42:00.991Z,20.70
2022-08-30T19:44:04.316Z,20.70
2022-08-30T19:46:07.031Z,20.60
2022-08-30T19:48:10.078Z,20.60
2022-08-30T19:50:13.091Z,20.60
2022-08-30T19:52:14.962Z,20.50
2022-08-30T19:54:17.353Z,20.40
2022-08-30T19:56:19.425Z,20.40
2022-08-30T19:58:21.242Z,20.40
2022-08-30T20:00:23.518Z,20.30
2022-08-30T20:02:25.797Z,20.30
2022-08-30T20:04:29.760Z,20.30
2022-08-30T20:06:32.566Z,20.20
2022-08-30T20:08:34.958Z,20.20
2022-08-30T20:10:37.425Z,20.10
2022-08-30T20:12:45.573Z,20.10
2022-08-30T20:14:48.401Z,20.10
2022-08-30T20:16:51.912Z,20.00
2022-08-30T20:18:53.749Z,19.90
2022-08-30T20:20:56.016Z,19.80
2022-08-30T20:22:57.796Z,19.80
2022-08-30T20:24:23.645Z,27.00
2022-08-30T20:24:59.686Z,19.80
2022-08-30T20:27:03.549Z,19.80
2022-08-30T20:29:07.345Z,19.80
2022-08-30T20:31:10.477Z,19.80
2022-08-30T20:33:12.574Z,19.70
2022-08-30T20:35:16.075Z,19.70
2022-08-30T20:37:17.975Z,19.60
2022-08-30T20:39:20.153Z,19.60
2022-08-30T20:41:22.349Z,19.60
2022-08-30T20:43:26.395Z,19.50
2022-08-30T20:45:30.942Z,19.50
2022-08-30T20:47:34.906Z,19.40
2022-08-30T20:49:37.212Z,19.40
2022-08-30T20:51:39.547Z,19.40
2022-08-30T20:53:42.205Z,19.30
2022-08-30T20:55:46.002Z,19.30
2022-08-30T20:57:47.751Z,19.30
2022-08-30T20:59:49.635Z,19.20
2022-08-30T21:01:51.541Z,19.20
2022-08-30T21:03:53.720Z,19.20
2022-08-30T21:05:56.688Z,19.10
2022-08-30T21:07:58.917Z,19.10
2022-08-30T21:10:00.757Z,19.00
2022-08-30T21:12:03.109Z,19.00
2022-08-30T21:14:05.464Z,19.00
2022-08-30T21:16:08.040Z,19.00
2022-08-30T21:18:14.764Z,18.90
2022-08-30T21:20:16.790Z,18.90
2022-08-30T21:22:18.928Z,18.90
2022-08-30T21:24:20.758Z,18.80
2022-08-30T21:26:23.211Z,18.80
2022-08-30T21:28:25.047Z,18.80
2022-08-30T21:30:26.931Z,18.80
2022-08-30T21:32:28.812Z,18.70
2022-08-30T21:34:50.576Z,18.70
2022-08-30T21:36:52.384Z,18.70
2022-08-30T21:38:57.623Z,18.60
2022-08-30T21:41:03.577Z,18.60
2022-08-30T21:43:07.473Z,18.50
2022-08-30T21:45:09.934Z,18.80
2022-08-30T21:47:11.841Z,18.50
2022-08-30T21:49:16.888Z,18.50
2022-08-30T21:51:19.324Z,18.40
2022-08-30T21:53:21.389Z,18.40
2022-08-30T21:55:23.386Z,18.40
2022-08-30T21:57:25.344Z,18.40
2022-08-30T21:59:28.559Z,18.30
2022-08-30T22:01:31.223Z,18.30
2022-08-30T22:03:33.016Z,18.30
2022-08-30T22:05:34.858Z,18.20
2022-08-30T22:07:37.395Z,18.20
2022-08-30T22:09:39.484Z,18.20
2022-08-30T22:11:43.488Z,18.20
2022-08-30T22:13:48.273Z,18.10
2022-08-30T22:15:50.141Z,18.10
2022-08-30T22:17:51.943Z,18.10
2022-08-30T22:19:54.339Z,18.10
2022-08-30T22:22:01.059Z,18.10
2022-08-30T22:24:04.210Z,18.10
2022-08-30T22:26:09.928Z,18.10
2022-08-30T22:28:15.141Z,18.00
2022-08-30T22:30:17.786Z,18.00
2022-08-30T22:32:19.684Z,18.00
2022-08-30T22:34:22.910Z,17.90
2022-08-30T22:36:32.633Z,17.90
2022-08-30T22:38:35.056Z,17.90
2022-08-30T22:40:36.938Z,17.90
2022-08-30T22:42:38.809Z,17.80
2022-08-30T22:44:41.397Z,17.80
2022-08-30T22:46:43.576Z,17.80
2022-08-30T22:48:47.483Z,17.70
2022-08-30T22:50:49.276Z,17.80
2022-08-30T22:52:51.124Z,17.70
2022-08-30T22:54:52.997Z,17.70
2022-08-30T22:56:54.779Z,17.70
2022-08-30T22:58:56.824Z,17.60
2022-08-30T23:00:58.786Z,17.60
2022-08-30T23:03:02.640Z,17.60
2022-08-30T23:05:05.451Z,17.60
2022-08-30T23:07:07.114Z,17.60
2022-08-30T23:09:11.306Z,17.50
2022-08-30T23:11:13.836Z,17.50
2022-08-30T23:13:15.797Z,17.50
2022-08-30T23:15:17.619Z,17.50
2022-08-30T23:17:19.865Z,17.50
2022-08-30T23:19:23.684Z,17.50
2022-08-30T23:21:28.340Z,17.50
2022-08-30T23:23:48.548Z,17.50
2022-08-30T23:26:08.778Z,17.50
2022-08-30T23:28:29.241Z,17.50
2022-08-30T23:30:49.761Z,17.50
2022-08-30T23:33:10.380Z,17.50
2022-08-30T23:35:31.998Z,17.50
2022-08-30T23:37:53.115Z,17.40
2022-08-30T23:40:13.840Z,17.40
2022-08-30T23:42:34.502Z,17.40
2022-08-30T23:44:54.740Z,17.40
2022-08-30T23:47:15.675Z,17.40
2022-08-30T23:49:36.191Z,17.50
2022-08-30T23:51:57.053Z,17.50
2022-08-30T23:54:18.114Z,17.40
2022-08-30T23:56:38.355Z,17.40
2022-08-30T23:58:59.206Z,17.40
